Time;durP1;ratioP1;P1;durP2;ratioP2;P2;SDS_P1;SDS_P2;PMS_P1;PMS_P2;Temp;Humidity;BMP_temperature;BMP_pressure;BME280_temperature;BME280_humidity;BME280_pressure;Samples;Min_cycle;Max_cycle;Signal;HPM_P1;HPM_P2
2021/04/03 00:00:25;;;;;;;21.55;4.72;;;9.20;95.90;;;;;;1899890;73;21034;-65
2021/04/03 00:02:54;;;;;;;21.15;4.22;;;9.10;96.10;;;;;;1897130;74;21102;-64
2021/04/03 00:05:22;;;;;;;23.20;5.35;;;9.20;96.40;;;;;;1904062;73;21067;-65
2021/04/03 00:07:51;;;;;;;26.10;5.53;;;9.10;96.80;;;;;;1900740;73;21920;-64
2021/04/03 00:10:36;;;;;;;26.40;4.97;;;9.10;96.70;;;;;;1902191;73;21106;-64
2021/04/03 00:13:04;;;;;;;34.23;5.30;;;9.20;97.00;;;;;;1901266;74;21125;-64
2021/04/03 00:15:32;;;;;;;34.98;5.58;;;9.20;97.20;;;;;;1904393;74;21141;-63
2021/04/03 00:18:00;;;;;;;25.72;4.37;;;9.20;97.30;;;;;;1900567;74;21199;-65
2021/04/03 00:20:30;;;;;;;31.15;5.83;;;9.20;97.50;;;;;;1897295;73;21138;-65
2021/04/03 00:22:58;;;;;;;37.15;6.08;;;9.20;97.70;;;;;;1898170;74;21301;-63
2021/04/03 00:25:26;;;;;;;32.93;6.35;;;9.20;97.80;;;;;;1898780;74;21138;-65
2021/04/03 00:27:53;;;;;;;35.05;5.53;;;9.20;98.00;;;;;;1899149;74;21083;-66
2021/04/03 00:30:21;;;;;;;30.62;5.28;;;9.20;98.00;;;;;;1900097;73;21085;-65
2021/04/03 00:32:54;;;;;;;31.12;5.90;;;9.20;98.20;;;;;;1902915;73;21089;-65
2021/04/03 00:35:24;;;;;;;27.13;5.25;;;9.20;98.40;;;;;;1910571;73;21134;-66
2021/04/03 00:37:53;;;;;;;29.07;5.95;;;9.20;98.60;;;;;;1899113;73;21227;-65
2021/04/03 00:40:23;;;;;;;41.48;5.95;;;9.10;98.60;;;;;;1903793;73;21005;-66
2021/04/03 00:42:51;;;;;;;35.48;6.37;;;9.10;98.70;;;;;;1899928;74;21031;-64
2021/04/03 00:45:22;;;;;;;35.63;6.72;;;9.10;99.00;;;;;;1901392;73;21076;-65
2021/04/03 00:47:50;;;;;;;30.75;5.95;;;9.10;99.20;;;;;;1897096;73;21598;-67
2021/04/03 00:50:21;;;;;;;34.15;6.22;;;9.10;99.30;;;;;;1901075;74;21199;-62
2021/04/03 00:52:49;;;;;;;38.75;7.05;;;9.10;99.40;;;;;;1901637;74;21176;-64
2021/04/03 00:55:16;;;;;;;34.73;7.05;;;9.10;99.60;;;;;;1901403;73;21130;-64
2021/04/03 00:57:44;;;;;;;38.25;7.50;;;9.10;99.90;;;;;;1900724;73;21136;-63
2021/04/03 01:00:13;;;;;;;37.98;7.30;;;9.00;99.90;;;;;;1897777;74;21090;-64
2021/04/03 01:02:40;;;;;;;30.77;5.20;;;9.10;99.90;;;;;;1899854;74;21063;-64
2021/04/03 01:05:13;;;;;;;33.25;6.22;;;9.10;99.90;;;;;;1907588;73;21133;-67
2021/04/03 01:07:41;;;;;;;37.98;6.20;;;9.10;99.90;;;;;;1902733;73;21630;-66
2021/04/03 01:10:11;;;;;;;38.23;6.65;;;9.10;99.90;;;;;;1900730;73;21106;-66
2021/04/03 01:12:41;;;;;;;41.92;6.87;;;9.00;99.90;;;;;;1903947;73;21470;-65
2021/04/03 01:15:33;;;;;;;33.90;6.55;;;9.00;99.90;;;;;;1901981;73;21102;-66
2021/04/03 01:18:25;;;;;;;31.15;6.08;;;9.00;99.90;;;;;;1907935;73;21207;-67
2021/04/03 01:21:23;;;;;;;35.45;6.78;;;9.00;99.90;;;;;;1899093;73;21331;-66
2021/04/03 01:24:03;;;;;;;38.40;6.92;;;8.90;99.90;;;;;;1907472;73;21089;-65
2021/04/03 01:26:48;;;;;;;36.53;6.30;;;8.80;99.90;;;;;;1891736;73;21097;-65
2021/04/03 01:29:25;;;;;;;36.73;6.72;;;8.90;99.90;;;;;;1900849;73;21087;-65
2021/04/03 01:31:54;;;;;;;35.23;6.67;;;8.90;99.90;;;;;;1900086;74;21125;-64
2021/04/03 01:34:27;;;;;;;38.40;7.55;;;8.90;99.90;;;;;;1900230;73;21546;-65
2021/04/03 01:37:00;;;;;;;38.38;7.12;;;8.90;99.90;;;;;;1899756;73;21211;-65
2021/04/03 01:39:30;;;;;;;38.90;7.03;;;8.90;99.90;;;;;;1902290;73;21168;-65
2021/04/03 01:42:00;;;;;;;38.80;6.92;;;8.90;99.90;;;;;;1898984;73;21087;-65
2021/04/03 01:44:37;;;;;;;40.20;7.25;;;8.90;99.90;;;;;;1896856;74;21597;-64
2021/04/03 01:47:05;;;;;;;43.60;8.08;;;8.90;99.90;;;;;;1900319;73;21233;-65
2021/04/03 01:49:35;;;;;;;38.10;7.60;;;8.90;99.90;;;;;;1898730;73;21106;-64
2021/04/03 01:52:03;;;;;;;40.08;6.90;;;8.90;99.90;;;;;;1900921;73;21457;-63
2021/04/03 01:54:33;;;;;;;44.18;7.90;;;8.90;99.90;;;;;;1898625;73;21067;-65
2021/04/03 01:57:01;;;;;;;45.80;7.72;;;9.00;99.90;;;;;;1902588;73;21118;-65
2021/04/03 01:59:29;;;;;;;52.78;7.50;;;8.90;99.90;;;;;;1902980;74;21062;-65
2021/04/03 02:01:59;;;;;;;45.20;7.05;;;8.90;99.90;;;;;;1901034;73;21163;-64
2021/04/03 02:04:27;;;;;;;39.23;7.22;;;8.90;99.90;;;;;;1902045;73;21106;-65
2021/04/03 02:06:55;;;;;;;45.33;7.60;;;8.90;99.90;;;;;;1905709;74;21019;-65
2021/04/03 02:09:25;;;;;;;44.27;7.78;;;9.00;99.90;;;;;;1902580;73;21141;-65
2021/04/03 02:11:53;;;;;;;42.43;7.55;;;8.90;99.90;;;;;;1898513;74;21117;-65
2021/04/03 02:14:23;;;;;;;44.95;8.90;;;8.90;99.90;;;;;;1901237;74;21652;-63
2021/04/03 02:16:53;;;;;;;48.92;8.40;;;8.90;99.90;;;;;;1900780;74;21052;-65
2021/04/03 02:19:21;;;;;;;60.78;10.20;;;8.90;99.90;;;;;;1897465;73;21090;-65
2021/04/03 02:21:49;;;;;;;52.10;9.13;;;8.90;99.90;;;;;;1903089;73;22236;-64
2021/04/03 02:24:17;;;;;;;44.30;8.53;;;8.90;99.90;;;;;;1898826;73;21214;-65
2021/04/03 02:26:46;;;;;;;45.45;8.03;;;8.90;99.90;;;;;;1899716;73;21544;-64
2021/04/03 02:29:13;;;;;;;48.63;8.10;;;8.90;99.90;;;;;;1895584;73;21184;-64
2021/04/03 02:31:41;;;;;;;43.10;7.47;;;8.90;99.90;;;;;;1901939;73;21086;-65
2021/04/03 02:34:08;;;;;;;52.83;8.85;;;8.80;99.90;;;;;;1903695;73;21663;-65
2021/04/03 02:36:36;;;;;;;50.52;8.38;;;8.80;99.90;;;;;;1899807;73;21156;-64
2021/04/03 02:39:04;;;;;;;48.90;8.25;;;8.80;99.90;;;;;;1898775;73;21129;-64
2021/04/03 02:41:44;;;;;;;50.20;8.95;;;8.80;99.90;;;;;;1887783;73;21070;-64
2021/04/03 02:44:26;;;;;;;48.75;8.55;;;8.80;99.90;;;;;;1900029;74;21130;-64
2021/04/03 02:47:00;;;;;;;49.27;9.15;;;8.70;99.90;;;;;;1889457;74;21082;-65
2021/04/03 02:49:30;;;;;;;47.83;8.18;;;8.70;99.90;;;;;;1905225;73;22107;-63
2021/04/03 02:52:00;;;;;;;45.03;7.50;;;8.70;99.90;;;;;;1895645;73;21180;-64
2021/04/03 02:54:29;;;;;;;44.90;7.78;;;8.70;99.90;;;;;;1898825;73;21149;-64
2021/04/03 02:57:00;;;;;;;40.43;8.25;;;8.70;99.90;;;;;;1903001;74;21137;-64
2021/04/03 02:59:33;;;;;;;48.95;8.15;;;8.70;99.90;;;;;;1904145;73;21102;-63
2021/04/03 03:02:03;;;;;;;47.60;8.78;;;8.70;99.90;;;;;;1902727;73;21164;-64
2021/04/03 03:04:32;;;;;;;55.12;8.80;;;8.70;99.90;;;;;;1897756;73;21191;-64
2021/04/03 03:07:00;;;;;;;49.77;8.58;;;8.70;99.90;;;;;;1898475;74;21180;-62
2021/04/03 03:09:29;;;;;;;49.13;8.20;;;8.70;99.90;;;;;;1893663;74;21097;-64
2021/04/03 03:11:59;;;;;;;41.85;7.95;;;8.60;99.90;;;;;;1896721;74;21183;-64
2021/04/03 03:14:27;;;;;;;49.42;8.63;;;8.60;99.90;;;;;;1899604;73;21199;-64
2021/04/03 03:16:56;;;;;;;48.78;8.40;;;8.60;99.90;;;;;;1904831;73;21058;-65
2021/04/03 03:19:24;;;;;;;50.43;8.85;;;8.60;99.90;;;;;;1900839;73;21039;-64
2021/04/03 03:21:52;;;;;;;53.33;9.03;;;8.60;99.90;;;;;;1901995;73;21036;-64
2021/04/03 03:24:20;;;;;;;54.05;9.20;;;8.60;99.90;;;;;;1901600;73;21086;-64
2021/04/03 03:26:48;;;;;;;57.13;9.38;;;8.60;99.90;;;;;;1904702;73;21021;-63
2021/04/03 03:29:17;;;;;;;41.10;8.13;;;8.70;99.90;;;;;;1897817;73;21034;-67
2021/04/03 03:31:44;;;;;;;51.05;8.68;;;8.60;99.90;;;;;;1906268;73;21676;-64
2021/04/03 03:34:12;;;;;;;54.70;8.83;;;8.60;99.90;;;;;;1906396;73;21071;-63
2021/04/03 03:36:40;;;;;;;49.95;8.60;;;8.60;99.90;;;;;;1897528;74;21112;-65
2021/04/03 03:39:09;;;;;;;47.27;9.85;;;8.60;99.90;;;;;;1904426;73;21126;-63
2021/04/03 03:41:37;;;;;;;55.28;9.38;;;8.60;99.90;;;;;;1902755;73;21563;-64
2021/04/03 03:44:06;;;;;;;49.70;8.75;;;8.60;99.90;;;;;;1903997;73;21215;-64
2021/04/03 03:46:34;;;;;;;42.60;8.20;;;8.60;99.90;;;;;;1900705;73;21091;-64
2021/04/03 03:49:03;;;;;;;46.95;9.53;;;8.60;99.90;;;;;;1900975;73;21586;-64
2021/04/03 03:51:32;;;;;;;48.30;8.70;;;8.60;99.90;;;;;;1899351;73;21090;-63
2021/04/03 03:53:59;;;;;;;54.45;9.23;;;8.60;99.90;;;;;;1895388;73;21083;-64
2021/04/03 03:56:27;;;;;;;46.28;8.48;;;8.60;99.90;;;;;;1900592;73;21183;-66
2021/04/03 03:58:55;;;;;;;52.48;9.85;;;8.60;99.90;;;;;;1900601;73;21055;-64
2021/04/03 04:01:22;;;;;;;44.95;8.80;;;8.60;99.90;;;;;;1899287;74;21197;-65
2021/04/03 04:03:50;;;;;;;47.20;9.25;;;8.60;99.90;;;;;;1901333;73;21148;-66
2021/04/03 04:06:17;;;;;;;52.00;9.38;;;8.70;99.90;;;;;;1906880;73;21116;-64
2021/04/03 04:08:45;;;;;;;48.20;8.98;;;8.60;99.90;;;;;;1899785;74;22342;-65
2021/04/03 04:11:17;;;;;;;41.33;8.78;;;8.70;99.90;;;;;;1900347;73;21093;-63
2021/04/03 04:13:44;;;;;;;48.40;9.60;;;8.70;99.90;;;;;;1898822;73;21156;-64
2021/04/03 04:16:12;;;;;;;47.67;9.18;;;8.70;99.90;;;;;;1898962;73;21603;-64
2021/04/03 04:18:39;;;;;;;49.08;9.28;;;8.60;99.90;;;;;;1902168;73;21094;-65
2021/04/03 04:21:07;;;;;;;47.88;10.03;;;8.60;99.90;;;;;;1905011;73;21161;-64
2021/04/03 04:23:34;;;;;;;56.10;10.40;;;8.60;99.90;;;;;;1900122;74;21106;-63
2021/04/03 04:26:02;;;;;;;53.98;11.12;;;8.60;99.90;;;;;;1902371;74;21197;-64
2021/04/03 04:28:30;;;;;;;48.05;10.43;;;8.60;99.90;;;;;;1902294;73;21644;-65
2021/04/03 04:30:57;;;;;;;47.78;10.35;;;8.60;99.90;;;;;;1899677;74;21649;-65
2021/04/03 04:33:25;;;;;;;50.20;10.80;;;8.60;99.90;;;;;;1897673;73;21159;-64
2021/04/03 04:35:52;;;;;;;53.35;11.30;;;8.60;99.90;;;;;;1906145;73;21047;-63
2021/04/03 04:38:20;;;;;;;43.83;10.23;;;8.50;99.90;;;;;;1907615;73;21084;-63
2021/04/03 04:40:47;;;;;;;49.98;10.90;;;8.50;99.90;;;;;;1902622;73;21105;-64
2021/04/03 04:43:15;;;;;;;39.48;10.08;;;8.50;99.90;;;;;;1898856;73;21141;-64
2021/04/03 04:45:42;;;;;;;45.48;10.82;;;8.50;99.90;;;;;;1906244;73;21159;-65
2021/04/03 04:48:10;;;;;;;43.68;10.30;;;8.40;99.90;;;;;;1902059;74;21599;-65
2021/04/03 04:50:37;;;;;;;45.95;11.00;;;8.40;99.90;;;;;;1900708;73;21583;-65
2021/04/03 04:53:06;;;;;;;47.67;10.18;;;8.40;99.90;;;;;;1896329;74;21007;-64
2021/04/03 04:55:35;;;;;;;42.20;10.50;;;8.40;99.90;;;;;;1901921;74;21125;-64
2021/04/03 04:58:02;;;;;;;45.17;10.48;;;8.40;99.90;;;;;;1896878;73;21181;-65
2021/04/03 05:00:30;;;;;;;47.38;10.03;;;8.40;99.90;;;;;;1896031;74;21096;-65
2021/04/03 05:02:57;;;;;;;41.90;11.35;;;8.40;99.90;;;;;;1903307;73;21199;-64
2021/04/03 05:05:25;;;;;;;49.30;11.22;;;8.40;99.90;;;;;;1897258;73;21148;-65
2021/04/03 05:07:52;;;;;;;56.55;11.55;;;8.40;99.90;;;;;;1897187;74;21556;-65
2021/04/03 05:10:20;;;;;;;47.30;11.45;;;8.40;99.90;;;;;;1898298;73;21171;-65
2021/04/03 05:12:48;;;;;;;42.75;10.75;;;8.40;99.90;;;;;;1899189;73;21587;-65
2021/04/03 05:15:15;;;;;;;54.23;12.10;;;8.40;99.90;;;;;;1898587;73;21157;-65
2021/04/03 05:17:43;;;;;;;39.30;11.25;;;8.30;99.90;;;;;;1891514;73;21101;-65
2021/04/03 05:20:11;;;;;;;33.55;9.90;;;8.40;99.90;;;;;;1905338;73;21144;-65
2021/04/03 05:22:38;;;;;;;37.63;10.95;;;8.40;99.90;;;;;;1901063;74;21093;-64
2021/04/03 05:25:06;;;;;;;39.78;11.45;;;8.40;99.90;;;;;;1903353;73;21505;-64
2021/04/03 05:27:34;;;;;;;40.92;10.13;;;8.40;99.90;;;;;;1901330;73;20987;-64
2021/04/03 05:30:01;;;;;;;39.33;10.05;;;8.40;99.90;;;;;;1901914;73;21123;-64
2021/04/03 05:32:29;;;;;;;33.33;9.65;;;8.40;99.90;;;;;;1901131;74;21031;-64
2021/04/03 05:34:56;;;;;;;40.28;10.32;;;8.40;99.90;;;;;;1904161;73;21125;-65
2021/04/03 05:37:24;;;;;;;40.17;10.23;;;8.50;99.90;;;;;;1895367;73;21583;-65
2021/04/03 05:39:51;;;;;;;40.17;10.10;;;8.50;99.90;;;;;;1897871;73;21086;-64
2021/04/03 05:42:19;;;;;;;36.13;9.63;;;8.50;99.90;;;;;;1898493;74;21128;-64
2021/04/03 05:44:48;;;;;;;26.45;9.03;;;8.50;99.90;;;;;;1905754;73;21159;-65
2021/04/03 05:47:16;;;;;;;38.25;9.25;;;8.50;99.90;;;;;;1900459;73;21117;-63
2021/04/03 05:49:44;;;;;;;31.82;9.03;;;8.50;99.90;;;;;;1902180;73;21085;-64
2021/04/03 05:52:12;;;;;;;42.13;10.28;;;8.50;99.90;;;;;;1902996;74;21086;-64
2021/04/03 05:54:40;;;;;;;37.03;9.43;;;8.60;99.90;;;;;;1901801;73;21081;-63
2021/04/03 05:57:08;;;;;;;39.60;9.30;;;8.50;99.90;;;;;;1902799;74;21063;-65
2021/04/03 05:59:36;;;;;;;32.75;8.90;;;8.50;99.90;;;;;;1904720;74;21012;-63
2021/04/03 06:02:06;;;;;;;34.67;8.50;;;8.60;99.90;;;;;;1903407;73;21120;-62
2021/04/03 06:04:34;;;;;;;34.55;8.50;;;8.70;99.90;;;;;;1902919;74;21148;-63
2021/04/03 06:07:02;;;;;;;34.60;8.40;;;8.70;99.90;;;;;;1899120;73;21578;-65
2021/04/03 06:09:30;;;;;;;31.65;7.72;;;8.70;99.90;;;;;;1903871;73;21061;-65
2021/04/03 06:11:57;;;;;;;34.60;7.85;;;8.80;99.90;;;;;;1904970;74;21159;-65
2021/04/03 06:14:25;;;;;;;30.68;8.20;;;8.80;99.90;;;;;;1894582;73;21107;-64
2021/04/03 06:16:53;;;;;;;34.03;8.58;;;8.90;99.90;;;;;;1904431;74;21680;-65
2021/04/03 06:19:23;;;;;;;27.10;7.97;;;8.90;99.90;;;;;;1901916;73;21078;-65
2021/04/03 06:21:58;;;;;;;31.07;8.00;;;8.90;99.90;;;;;;1900448;73;21163;-65
2021/04/03 06:24:37;;;;;;;37.58;8.63;;;9.00;99.90;;;;;;1897103;74;21223;-66
2021/04/03 06:27:10;;;;;;;34.00;7.45;;;9.00;99.90;;;;;;1900316;73;21343;-65
2021/04/03 06:29:47;;;;;;;34.80;8.03;;;9.00;99.90;;;;;;1898866;74;21224;-66
2021/04/03 06:32:30;;;;;;;38.33;8.13;;;9.10;99.90;;;;;;1896461;74;21089;-65
2021/04/03 06:34:56;;;;;;;28.70;7.70;;;9.10;99.90;;;;;;1907534;73;21202;-65
2021/04/03 06:37:35;;;;;;;35.00;8.80;;;9.20;99.90;;;;;;1903617;73;21142;-66
2021/04/03 06:40:11;;;;;;;29.48;7.95;;;9.30;99.90;;;;;;1904423;73;21224;-65
2021/04/03 06:42:57;;;;;;;28.02;7.28;;;9.30;99.90;;;;;;1905890;73;21187;-64
2021/04/03 06:45:33;;;;;;;31.23;6.45;;;9.40;99.90;;;;;;1902956;73;21089;-65
2021/04/03 06:48:05;;;;;;;27.10;6.92;;;9.40;99.90;;;;;;1905969;74;21590;-66
2021/04/03 06:50:35;;;;;;;22.45;6.50;;;9.50;99.90;;;;;;1899494;74;21027;-66
2021/04/03 06:53:08;;;;;;;27.42;7.08;;;9.50;99.90;;;;;;1901550;73;21031;-65
2021/04/03 06:55:37;;;;;;;30.48;7.45;;;9.60;99.90;;;;;;1898054;73;21152;-66
2021/04/03 06:58:05;;;;;;;23.77;6.10;;;9.60;99.90;;;;;;1900564;73;21140;-64
2021/04/03 07:00:34;;;;;;;27.27;6.75;;;9.70;99.90;;;;;;1893984;74;21571;-65
2021/04/03 07:03:07;;;;;;;26.07;6.85;;;9.70;99.90;;;;;;1903639;74;22266;-64
2021/04/03 07:05:36;;;;;;;31.37;6.62;;;9.70;99.90;;;;;;1908547;73;21178;-66
2021/04/03 07:08:06;;;;;;;24.02;6.50;;;9.80;99.90;;;;;;1904928;73;21109;-65
2021/04/03 07:10:35;;;;;;;24.20;5.92;;;9.80;99.90;;;;;;1898527;73;21128;-66
2021/04/03 07:13:04;;;;;;;22.67;5.95;;;9.90;99.90;;;;;;1902187;73;21177;-65
2021/04/03 07:15:32;;;;;;;18.15;5.65;;;9.90;99.90;;;;;;1904345;73;21137;-66
2021/04/03 07:17:59;;;;;;;22.95;6.22;;;10.00;99.90;;;;;;1903540;73;21576;-65
2021/04/03 07:20:30;;;;;;;25.60;6.17;;;10.00;99.90;;;;;;1899969;73;21183;-66
2021/04/03 07:23:03;;;;;;;19.05;5.62;;;10.10;99.90;;;;;;1896969;74;21611;-65
2021/04/03 07:25:33;;;;;;;24.80;5.28;;;10.10;99.90;;;;;;1903245;74;21177;-64
2021/04/03 07:28:01;;;;;;;23.65;6.17;;;10.20;99.90;;;;;;1897572;74;21094;-64
2021/04/03 07:30:40;;;;;;;22.98;5.70;;;10.30;99.90;;;;;;1899974;74;21258;-65
2021/04/03 07:33:13;;;;;;;23.20;5.75;;;10.30;99.90;;;;;;1901741;74;21635;-65
2021/04/03 07:35:52;;;;;;;20.27;6.12;;;10.30;99.90;;;;;;1899644;73;21603;-63
2021/04/03 07:38:25;;;;;;;16.52;4.97;;;10.40;99.90;;;;;;1900080;74;21101;-65
2021/04/03 07:40:55;;;;;;;16.97;5.00;;;10.40;99.90;;;;;;1899887;73;21118;-64
2021/04/03 07:43:33;;;;;;;16.67;4.53;;;10.50;99.90;;;;;;1902420;74;21645;-64
2021/04/03 07:46:10;;;;;;;17.77;4.78;;;10.60;99.90;;;;;;1899987;73;22183;-63
2021/04/03 07:48:52;;;;;;;18.27;5.37;;;10.70;99.90;;;;;;1899553;73;22339;-64
2021/04/03 07:51:32;;;;;;;17.05;4.17;;;10.70;99.90;;;;;;1898860;74;21179;-65
2021/04/03 07:54:01;;;;;;;13.28;4.15;;;10.70;99.90;;;;;;1895564;74;21187;-64
2021/04/03 07:56:50;;;;;;;16.95;4.58;;;10.70;99.90;;;;;;1906550;74;21104;-64
2021/04/03 07:59:19;;;;;;;16.85;3.95;;;10.80;99.90;;;;;;1898306;74;21232;-64
2021/04/03 08:01:47;;;;;;;15.45;4.33;;;10.90;99.90;;;;;;1906884;73;21063;-64
2021/04/03 08:04:14;;;;;;;10.23;3.30;;;11.00;99.90;;;;;;1902646;73;21195;-65
2021/04/03 08:06:43;;;;;;;11.85;3.60;;;11.00;99.90;;;;;;1907229;74;21077;-64
2021/04/03 08:09:16;;;;;;;13.38;3.45;;;11.10;99.90;;;;;;1906136;73;21181;-64
2021/04/03 08:11:45;;;;;;;10.80;3.83;;;11.10;99.90;;;;;;1899859;73;21140;-64
2021/04/03 08:14:15;;;;;;;12.25;3.30;;;11.20;99.90;;;;;;1902886;73;21106;-69
2021/04/03 08:16:43;;;;;;;12.82;3.70;;;11.30;99.90;;;;;;1903896;73;21042;-66
2021/04/03 08:19:12;;;;;;;11.05;3.62;;;11.30;99.90;;;;;;1902083;74;21135;-67
2021/04/03 08:21:45;;;;;;;11.95;3.58;;;11.40;99.90;;;;;;1899153;73;21105;-66
2021/04/03 08:24:14;;;;;;;12.78;3.72;;;11.40;99.90;;;;;;1896514;74;21047;-66
2021/04/03 08:26:43;;;;;;;12.65;3.65;;;11.50;99.90;;;;;;1902273;74;21034;-67
2021/04/03 08:29:24;;;;;;;10.85;2.70;;;11.50;99.90;;;;;;1899174;74;21034;-66
2021/04/03 08:31:53;;;;;;;8.68;3.05;;;11.70;99.80;;;;;;1844538;73;21202;-70
2021/04/03 08:34:21;;;;;;;9.83;2.80;;;11.70;99.10;;;;;;1799825;78;21047;-70
2021/04/03 08:36:50;;;;;;;9.75;3.02;;;11.70;98.10;;;;;;1798329;79;21181;-70
2021/04/03 08:39:20;;;;;;;9.10;2.98;;;11.80;97.60;;;;;;1799406;77;21620;-70
2021/04/03 08:41:50;;;;;;;6.60;2.75;;;11.90;97.80;;;;;;1810329;77;21237;-70
2021/04/03 08:44:19;;;;;;;12.00;3.60;;;11.90;98.30;;;;;;1828299;77;21168;-68
2021/04/03 08:46:51;;;;;;;9.40;3.70;;;11.90;98.50;;;;;;1825672;77;21079;-71
2021/04/03 08:49:33;;;;;;;10.35;2.92;;;12.00;97.60;;;;;;1824110;77;21138;-69
2021/04/03 08:52:00;;;;;;;11.80;3.33;;;12.10;97.40;;;;;;1824725;77;21157;-70
2021/04/03 08:54:42;;;;;;;8.40;2.75;;;12.10;98.40;;;;;;1822710;77;21083;-70
2021/04/03 08:57:28;;;;;;;7.45;2.98;;;12.20;98.00;;;;;;1827609;77;21234;-70
2021/04/03 08:59:57;;;;;;;11.30;2.70;;;12.20;98.00;;;;;;1826653;77;21130;-68
2021/04/03 09:02:25;;;;;;;7.87;2.85;;;12.30;97.20;;;;;;1824012;77;21277;-68
2021/04/03 09:04:53;;;;;;;9.33;3.05;;;12.30;96.70;;;;;;1822804;77;21158;-68
2021/04/03 09:07:33;;;;;;;7.15;2.60;;;12.40;96.90;;;;;;1825758;77;21210;-69
2021/04/03 09:10:06;;;;;;;9.70;2.50;;;12.40;97.10;;;;;;1823959;77;21170;-69
2021/04/03 09:12:33;;;;;;;14.03;3.12;;;12.50;96.90;;;;;;1822535;77;21648;-70
2021/04/03 09:15:02;;;;;;;8.50;2.60;;;12.60;96.30;;;;;;1827139;77;21542;-69
2021/04/03 09:17:30;;;;;;;6.42;2.30;;;12.60;96.30;;;;;;1825528;77;21521;-68
2021/04/03 09:20:11;;;;;;;9.00;2.40;;;12.70;96.20;;;;;;1824069;77;21204;-70
2021/04/03 09:22:40;;;;;;;7.42;2.55;;;12.90;96.20;;;;;;1819172;77;21212;-69
2021/04/03 09:25:13;;;;;;;7.35;2.08;;;12.90;94.60;;;;;;1828012;77;21045;-69
2021/04/03 09:27:41;;;;;;;7.17;2.00;;;13.00;94.50;;;;;;1825149;77;21510;-70
2021/04/03 09:30:13;;;;;;;8.40;2.05;;;13.10;95.30;;;;;;1828584;77;21039;-70
2021/04/03 09:32:45;;;;;;;5.50;2.20;;;13.20;94.10;;;;;;1825039;77;21146;-69
2021/04/03 09:35:15;;;;;;;6.78;2.10;;;13.30;94.60;;;;;;1826413;77;21086;-70
2021/04/03 09:37:42;;;;;;;6.37;2.27;;;13.40;93.50;;;;;;1828324;76;21004;-69
2021/04/03 09:40:10;;;;;;;4.03;1.67;;;13.50;92.40;;;;;;1826479;76;21494;-70
2021/04/03 09:42:37;;;;;;;5.28;2.00;;;13.50;92.80;;;;;;1823575;76;21210;-69
2021/04/03 09:45:06;;;;;;;9.20;1.98;;;13.60;92.00;;;;;;1826473;76;21122;-70
2021/04/03 09:47:34;;;;;;;4.75;1.85;;;13.60;91.70;;;;;;1825623;76;21173;-69
2021/04/03 09:50:01;;;;;;;4.37;1.75;;;13.80;92.10;;;;;;1826194;76;21096;-70
2021/04/03 09:52:29;;;;;;;5.72;1.90;;;13.90;93.00;;;;;;1822267;76;21142;-70
2021/04/03 09:54:56;;;;;;;8.08;2.30;;;14.00;92.40;;;;;;1826397;76;21173;-70
2021/04/03 09:57:24;;;;;;;7.58;2.30;;;14.20;92.30;;;;;;1824595;76;21645;-70
2021/04/03 09:59:51;;;;;;;7.42;2.65;;;14.20;91.90;;;;;;1825376;76;21106;-70
2021/04/03 10:02:19;;;;;;;6.03;1.80;;;14.30;92.40;;;;;;1828782;76;21236;-68
2021/04/03 10:04:46;;;;;;;7.10;2.25;;;14.40;92.50;;;;;;1826857;76;21176;-70
2021/04/03 10:07:14;;;;;;;7.20;2.20;;;14.40;91.60;;;;;;1825537;76;21251;-70
2021/04/03 10:09:41;;;;;;;4.72;1.90;;;14.50;91.40;;;;;;1828194;76;21114;-70
2021/04/03 10:12:09;;;;;;;5.28;1.67;;;14.50;91.60;;;;;;1824302;76;21392;-70
2021/04/03 10:14:37;;;;;;;5.92;2.00;;;14.50;90.00;;;;;;1822646;76;21267;-70
2021/04/03 10:17:04;;;;;;;7.40;1.82;;;14.50;88.40;;;;;;1826068;76;21130;-70
2021/04/03 10:19:32;;;;;;;7.08;2.27;;;14.60;89.30;;;;;;1825306;76;21250;-70
2021/04/03 10:21:59;;;;;;;8.50;1.80;;;14.60;90.90;;;;;;1825980;76;21205;-70
2021/04/03 10:24:27;;;;;;;6.45;1.90;;;14.70;89.30;;;;;;1827536;76;21114;-70
2021/04/03 10:26:54;;;;;;;7.28;2.27;;;14.70;87.50;;;;;;1826134;76;21607;-70
2021/04/03 10:29:22;;;;;;;7.55;1.60;;;14.80;87.40;;;;;;1823964;76;21126;-70
2021/04/03 10:31:49;;;;;;;4.58;1.67;;;14.80;87.50;;;;;;1826368;77;21494;-70
2021/04/03 10:34:17;;;;;;;5.35;1.80;;;14.90;89.00;;;;;;1824349;76;21075;-70
2021/04/03 10:36:44;;;;;;;8.33;2.02;;;15.00;87.80;;;;;;1825028;76;21122;-70
2021/04/03 10:39:12;;;;;;;5.62;2.05;;;15.00;86.00;;;;;;1823353;76;21102;-70
2021/04/03 10:41:39;;;;;;;4.78;1.77;;;15.10;86.50;;;;;;1827806;76;21277;-72
2021/04/03 10:44:07;;;;;;;4.75;1.10;;;15.10;84.80;;;;;;1823586;76;21771;-71
2021/04/03 10:46:34;;;;;;;5.35;1.50;;;15.20;84.00;;;;;;1825614;76;21644;-71
2021/04/03 10:49:02;;;;;;;5.55;0.95;;;15.40;83.30;;;;;;1829143;76;21556;-71
2021/04/03 10:51:29;;;;;;;4.75;1.00;;;15.60;83.30;;;;;;1823637;76;21689;-71
2021/04/03 10:53:57;;;;;;;4.97;1.27;;;15.70;79.10;;;;;;1824132;76;21184;-72
2021/04/03 10:56:24;;;;;;;6.17;1.37;;;15.70;79.10;;;;;;1824761;76;21126;-72
2021/04/03 10:58:53;;;;;;;5.58;1.35;;;15.80;80.30;;;;;;1825694;76;21142;-71
2021/04/03 11:01:20;;;;;;;7.67;1.62;;;15.80;80.00;;;;;;1822675;76;21122;-71
2021/04/03 11:03:48;;;;;;;5.97;1.95;;;15.90;79.00;;;;;;1828753;76;21205;-70
2021/04/03 11:06:15;;;;;;;6.78;1.80;;;15.80;76.40;;;;;;1823857;76;21192;-71
2021/04/03 11:08:43;;;;;;;9.95;1.72;;;15.90;79.50;;;;;;1823343;76;21743;-71
2021/04/03 11:11:10;;;;;;;7.47;1.42;;;16.00;80.00;;;;;;1825052;76;21122;-71
2021/04/03 11:13:38;;;;;;;8.80;1.45;;;16.00;79.50;;;;;;1822624;76;21231;-71
2021/04/03 11:16:05;;;;;;;6.28;1.75;;;16.10;79.70;;;;;;1827663;76;21556;-71
2021/04/03 11:18:33;;;;;;;4.78;1.60;;;16.20;79.10;;;;;;1823189;76;21228;-71
2021/04/03 11:21:01;;;;;;;6.22;1.35;;;16.30;76.30;;;;;;1826979;76;21107;-71
2021/04/03 11:23:28;;;;;;;6.15;1.52;;;16.40;72.40;;;;;;1822425;76;21192;-70
2021/04/03 11:25:56;;;;;;;6.70;1.87;;;16.40;73.10;;;;;;1823804;76;21419;-70
2021/04/03 11:28:23;;;;;;;7.37;1.95;;;16.40;75.10;;;;;;1828637;76;21571;-70
2021/04/03 11:30:51;;;;;;;5.83;1.70;;;16.50;75.30;;;;;;1826942;76;21604;-70
2021/04/03 11:33:19;;;;;;;5.70;1.62;;;16.50;72.90;;;;;;1826286;76;21123;-70
2021/04/03 11:35:47;;;;;;;4.78;1.30;;;16.50;72.30;;;;;;1826368;76;21528;-71
2021/04/03 11:38:14;;;;;;;8.90;1.77;;;16.50;71.40;;;;;;1824860;76;21114;-71
2021/04/03 11:40:42;;;;;;;6.67;1.60;;;16.40;71.40;;;;;;1826171;76;21647;-70
2021/04/03 11:43:10;;;;;;;5.05;1.30;;;16.50;71.40;;;;;;1825390;76;21074;-70
2021/04/03 11:45:37;;;;;;;5.10;1.35;;;16.50;70.90;;;;;;1828072;76;21146;-71
2021/04/03 11:48:05;;;;;;;9.10;2.17;;;16.60;71.80;;;;;;1828269;76;21063;-70
2021/04/03 11:50:32;;;;;;;6.45;1.65;;;16.70;73.10;;;;;;1822796;76;21710;-70
2021/04/03 11:53:00;;;;;;;5.90;1.80;;;16.70;70.70;;;;;;1823384;76;22080;-70
2021/04/03 11:55:28;;;;;;;6.55;1.95;;;16.70;69.80;;;;;;1825638;76;21039;-72
2021/04/03 11:57:56;;;;;;;6.67;1.70;;;16.70;68.80;;;;;;1824421;76;21137;-72
2021/04/03 12:00:24;;;;;;;9.68;2.00;;;16.80;70.00;;;;;;1827986;76;21132;-70
2021/04/03 12:02:51;;;;;;;7.47;1.85;;;16.90;68.50;;;;;;1823848;76;21908;-70
2021/04/03 12:05:19;;;;;;;9.63;2.52;;;17.10;67.60;;;;;;1828889;76;21509;-70
2021/04/03 12:07:46;;;;;;;6.45;1.70;;;17.10;66.00;;;;;;1822055;76;21094;-70
2021/04/03 12:10:17;;;;;;;9.98;2.22;;;17.00;66.80;;;;;;1821177;76;21110;-70
2021/04/03 12:12:46;;;;;;;8.80;2.22;;;17.10;68.20;;;;;;1824295;76;21616;-70
2021/04/03 12:15:16;;;;;;;10.78;2.50;;;17.10;68.40;;;;;;1824667;77;21115;-70
2021/04/03 12:17:44;;;;;;;11.30;2.58;;;17.20;69.00;;;;;;1824518;76;21094;-70
2021/04/03 12:20:15;;;;;;;9.15;2.45;;;17.10;70.10;;;;;;1826735;76;21216;-71
2021/04/03 12:22:44;;;;;;;8.08;2.30;;;17.10;70.40;;;;;;1787875;78;21254;-71
2021/04/03 12:25:12;;;;;;;11.18;2.30;;;17.10;71.10;;;;;;1824828;76;21203;-70
2021/04/03 12:27:40;;;;;;;13.13;2.52;;;17.30;70.30;;;;;;1793896;78;21056;-71
2021/04/03 12:30:08;;;;;;;21.55;3.33;;;17.40;69.80;;;;;;1825712;76;21222;-71
2021/04/03 12:32:36;;;;;;;8.35;2.52;;;17.50;70.10;;;;;;1824122;76;21580;-70
2021/04/03 12:35:05;;;;;;;11.55;2.83;;;17.60;69.30;;;;;;1821586;76;21059;-71
2021/04/03 12:37:33;;;;;;;10.98;2.55;;;17.80;69.90;;;;;;1826151;76;21058;-70
2021/04/03 12:40:00;;;;;;;9.55;2.80;;;18.10;70.50;;;;;;1826782;76;21039;-69
2021/04/03 12:42:29;;;;;;;11.95;2.87;;;18.40;69.20;;;;;;1822914;76;21075;-71
2021/04/03 12:44:57;;;;;;;11.25;2.85;;;18.40;67.10;;;;;;1826579;76;21978;-69
2021/04/03 12:47:24;;;;;;;8.18;2.75;;;18.20;70.30;;;;;;1822367;77;21241;-70
2021/04/03 12:49:52;;;;;;;12.65;3.00;;;18.30;68.40;;;;;;1821468;76;21850;-69
2021/04/03 12:52:20;;;;;;;9.33;2.58;;;18.30;67.00;;;;;;1825895;76;21115;-70
2021/04/03 12:54:48;;;;;;;11.73;2.67;;;18.30;65.90;;;;;;1826350;76;21650;-74